Ana Sayfa
METAR-TAF:

METAR-TAF

Havaalanları :

Poplar Bluff Municipal Airport

Poplar Bluff, Missouri, Amerika Birleşik Devletleri

Enlem: 36-46-14N, Boylam: 090-19-20W, yükseklik: 100 m

Güncel hava durumu gözlemi

Rapor saat 21:53 UTC de 25 dakika önce yapıldı.
Rüzgar güneydan 16 kt ve 25 kt'a kadar ani rüzgarlar
Sıcaklık 18°C
Nem 77%
Basınç 1006 hPa
Görüş mesafesi: 16.1 km
2300 ft yükseklikte parçalı çok bulutlu
2900 ft yükseklikte çok bulutlu

METAR: KPOF 262153Z AUTO 19016G25KT 10SM BKN023 OVC029 18/14 A2970 RMK AO2 SLP057 T01780139

Saat: 16:18 (22:18 UTC)


TAF: eksik

4.000'den fazla havaalanı için hava durumu gözlemleri ve tahminleri (METAR ve TAF raporları).

Kullanılabilir istasyonlar harita üzerinde sarı ve kırmızı noktalarla gösterilir.

İstasyonun adını görmek için fareyi noktanın üzerinde gezdirin.

Sonrasında hava gözlem ve tahminlerini görmek için tıklayın.

Haritayı değiştirmek için: yaklaştırmak için siyah artı işaretli yeşil düğmeye ve uzaklaştırmak için de eksi işaretli düğmeye hızla tıklayın; bitişik haritalar için yeşil okları kullanın.


METAR-TAF: